sensor_id;sensor_type;location;lat;lon;timestamp;P1;durP1;ratioP1;P2;durP2;ratioP2
12968;SDS011;6549;53.128;8.182;2023-07-16T00:00:55;7.63;;;2.30;;
12968;SDS011;6549;53.128;8.182;2023-07-16T00:03:55;5.22;;;2.53;;
12968;SDS011;6549;53.128;8.182;2023-07-16T00:06:56;3.67;;;2.13;;
12968;SDS011;6549;53.128;8.182;2023-07-16T00:09:56;4.55;;;2.30;;
12968;SDS011;6549;53.128;8.182;2023-07-16T00:12:57;5.72;;;2.05;;
12968;SDS011;6549;53.128;8.182;2023-07-16T00:15:57;4.10;;;2.15;;
12968;SDS011;6549;53.128;8.182;2023-07-16T00:18:57;5.47;;;2.42;;
12968;SDS011;6549;53.128;8.182;2023-07-16T00:21:57;4.38;;;2.10;;
12968;SDS011;6549;53.128;8.182;2023-07-16T00:24:58;4.20;;;2.03;;
12968;SDS011;6549;53.128;8.182;2023-07-16T00:27:58;3.50;;;2.10;;
12968;SDS011;6549;53.128;8.182;2023-07-16T00:30:58;5.35;;;2.22;;
12968;SDS011;6549;53.128;8.182;2023-07-16T00:33:59;3.55;;;2.30;;
12968;SDS011;6549;53.128;8.182;2023-07-16T00:36:59;7.30;;;2.80;;
12968;SDS011;6549;53.128;8.182;2023-07-16T00:40:01;6.63;;;2.72;;
12968;SDS011;6549;53.128;8.182;2023-07-16T00:43:02;6.53;;;2.65;;
12968;SDS011;6549;53.128;8.182;2023-07-16T00:46:02;5.18;;;2.53;;
12968;SDS011;6549;53.128;8.182;2023-07-16T00:49:03;6.20;;;2.38;;
12968;SDS011;6549;53.128;8.182;2023-07-16T00:52:03;5.35;;;2.50;;
12968;SDS011;6549;53.128;8.182;2023-07-16T00:55:05;7.93;;;2.70;;
12968;SDS011;6549;53.128;8.182;2023-07-16T00:58:07;7.03;;;2.78;;
12968;SDS011;6549;53.128;8.182;2023-07-16T01:01:07;8.13;;;2.65;;
12968;SDS011;6549;53.128;8.182;2023-07-16T01:04:07;6.25;;;2.80;;
12968;SDS011;6549;53.128;8.182;2023-07-16T01:07:08;5.70;;;2.83;;
12968;SDS011;6549;53.128;8.182;2023-07-16T01:10:11;6.00;;;2.92;;
12968;SDS011;6549;53.128;8.182;2023-07-16T01:13:12;5.03;;;2.58;;
12968;SDS011;6549;53.128;8.182;2023-07-16T01:16:22;9.10;;;3.45;;
12968;SDS011;6549;53.128;8.182;2023-07-16T01:19:25;6.28;;;2.70;;
12968;SDS011;6549;53.128;8.182;2023-07-16T01:22:27;5.63;;;2.83;;
12968;SDS011;6549;53.128;8.182;2023-07-16T01:25:36;7.22;;;2.90;;
12968;SDS011;6549;53.128;8.182;2023-07-16T01:32:05;6.22;;;2.80;;
12968;SDS011;6549;53.128;8.182;2023-07-16T01:35:08;6.97;;;3.40;;
12968;SDS011;6549;53.128;8.182;2023-07-16T01:38:09;7.18;;;2.70;;
12968;SDS011;6549;53.128;8.182;2023-07-16T01:41:10;5.70;;;2.78;;
12968;SDS011;6549;53.128;8.182;2023-07-16T01:44:11;5.60;;;3.10;;
12968;SDS011;6549;53.128;8.182;2023-07-16T01:47:13;4.97;;;2.80;;
12968;SDS011;6549;53.128;8.182;2023-07-16T01:50:17;4.72;;;2.53;;
12968;SDS011;6549;53.128;8.182;2023-07-16T01:53:18;5.80;;;3.20;;
12968;SDS011;6549;53.128;8.182;2023-07-16T01:56:18;6.15;;;2.97;;
12968;SDS011;6549;53.128;8.182;2023-07-16T01:59:18;7.95;;;3.45;;
12968;SDS011;6549;53.128;8.182;2023-07-16T02:02:19;8.25;;;3.70;;
12968;SDS011;6549;53.128;8.182;2023-07-16T02:05:19;6.38;;;3.28;;
12968;SDS011;6549;53.128;8.182;2023-07-16T02:08:19;6.43;;;2.83;;
12968;SDS011;6549;53.128;8.182;2023-07-16T02:11:20;9.18;;;3.50;;
12968;SDS011;6549;53.128;8.182;2023-07-16T02:14:20;7.55;;;3.10;;
12968;SDS011;6549;53.128;8.182;2023-07-16T02:17:20;7.80;;;3.05;;
12968;SDS011;6549;53.128;8.182;2023-07-16T02:20:21;5.18;;;2.40;;
12968;SDS011;6549;53.128;8.182;2023-07-16T02:23:21;6.55;;;2.65;;
12968;SDS011;6549;53.128;8.182;2023-07-16T02:26:21;7.55;;;2.67;;
12968;SDS011;6549;53.128;8.182;2023-07-16T02:29:22;5.30;;;3.13;;
12968;SDS011;6549;53.128;8.182;2023-07-16T02:32:22;7.20;;;3.10;;
12968;SDS011;6549;53.128;8.182;2023-07-16T02:35:23;4.07;;;2.70;;
12968;SDS011;6549;53.128;8.182;2023-07-16T02:38:23;7.63;;;2.70;;
12968;SDS011;6549;53.128;8.182;2023-07-16T02:41:23;7.53;;;3.17;;
12968;SDS011;6549;53.128;8.182;2023-07-16T02:44:23;9.57;;;3.80;;
12968;SDS011;6549;53.128;8.182;2023-07-16T02:47:24;6.90;;;3.30;;
12968;SDS011;6549;53.128;8.182;2023-07-16T02:50:24;6.95;;;3.55;;
12968;SDS011;6549;53.128;8.182;2023-07-16T02:53:24;6.05;;;3.10;;
12968;SDS011;6549;53.128;8.182;2023-07-16T02:56:25;5.63;;;3.15;;
12968;SDS011;6549;53.128;8.182;2023-07-16T02:59:25;5.57;;;3.05;;
12968;SDS011;6549;53.128;8.182;2023-07-16T03:02:25;6.47;;;3.58;;
12968;SDS011;6549;53.128;8.182;2023-07-16T03:05:26;5.72;;;3.42;;
12968;SDS011;6549;53.128;8.182;2023-07-16T03:08:27;9.18;;;3.88;;
12968;SDS011;6549;53.128;8.182;2023-07-16T03:11:30;7.85;;;3.42;;
12968;SDS011;6549;53.128;8.182;2023-07-16T03:14:30;8.35;;;3.45;;
12968;SDS011;6549;53.128;8.182;2023-07-16T03:17:30;7.10;;;3.10;;
12968;SDS011;6549;53.128;8.182;2023-07-16T03:20:30;7.82;;;3.97;;
12968;SDS011;6549;53.128;8.182;2023-07-16T03:23:31;7.65;;;4.00;;
12968;SDS011;6549;53.128;8.182;2023-07-16T03:26:31;7.45;;;3.75;;
12968;SDS011;6549;53.128;8.182;2023-07-16T03:29:32;7.70;;;3.60;;
12968;SDS011;6549;53.128;8.182;2023-07-16T03:32:33;8.93;;;3.60;;
12968;SDS011;6549;53.128;8.182;2023-07-16T03:35:33;5.32;;;3.03;;
12968;SDS011;6549;53.128;8.182;2023-07-16T03:38:33;7.30;;;3.42;;
12968;SDS011;6549;53.128;8.182;2023-07-16T03:41:34;9.27;;;4.15;;
12968;SDS011;6549;53.128;8.182;2023-07-16T03:44:34;8.45;;;3.60;;
12968;SDS011;6549;53.128;8.182;2023-07-16T03:47:34;6.88;;;3.53;;
12968;SDS011;6549;53.128;8.182;2023-07-16T03:50:35;5.00;;;3.53;;
12968;SDS011;6549;53.128;8.182;2023-07-16T03:53:36;6.95;;;3.45;;
12968;SDS011;6549;53.128;8.182;2023-07-16T03:56:36;6.60;;;4.10;;
12968;SDS011;6549;53.128;8.182;2023-07-16T03:59:36;8.02;;;4.25;;
12968;SDS011;6549;53.128;8.182;2023-07-16T04:02:37;6.07;;;3.63;;
12968;SDS011;6549;53.128;8.182;2023-07-16T04:05:37;9.82;;;4.10;;
12968;SDS011;6549;53.128;8.182;2023-07-16T04:08:37;7.95;;;3.60;;
12968;SDS011;6549;53.128;8.182;2023-07-16T04:11:38;5.70;;;3.65;;
12968;SDS011;6549;53.128;8.182;2023-07-16T04:14:38;7.60;;;3.72;;
12968;SDS011;6549;53.128;8.182;2023-07-16T04:17:39;8.18;;;3.80;;
12968;SDS011;6549;53.128;8.182;2023-07-16T04:20:39;9.68;;;4.20;;
12968;SDS011;6549;53.128;8.182;2023-07-16T04:23:39;8.80;;;3.80;;
12968;SDS011;6549;53.128;8.182;2023-07-16T04:26:40;10.95;;;3.78;;
12968;SDS011;6549;53.128;8.182;2023-07-16T04:29:40;10.57;;;4.00;;
12968;SDS011;6549;53.128;8.182;2023-07-16T04:32:40;8.95;;;3.85;;
12968;SDS011;6549;53.128;8.182;2023-07-16T04:35:41;9.38;;;3.67;;
12968;SDS011;6549;53.128;8.182;2023-07-16T04:38:41;8.85;;;3.60;;
12968;SDS011;6549;53.128;8.182;2023-07-16T04:41:41;7.57;;;3.60;;
12968;SDS011;6549;53.128;8.182;2023-07-16T04:44:42;7.40;;;3.40;;
12968;SDS011;6549;53.128;8.182;2023-07-16T04:47:42;8.73;;;3.53;;
12968;SDS011;6549;53.128;8.182;2023-07-16T04:50:43;9.98;;;3.72;;
12968;SDS011;6549;53.128;8.182;2023-07-16T04:53:43;10.45;;;3.30;;
12968;SDS011;6549;53.128;8.182;2023-07-16T04:56:43;9.75;;;3.53;;
12968;SDS011;6549;53.128;8.182;2023-07-16T04:59:44;6.78;;;3.42;;
12968;SDS011;6549;53.128;8.182;2023-07-16T05:02:44;8.82;;;3.65;;
12968;SDS011;6549;53.128;8.182;2023-07-16T05:05:44;9.57;;;3.83;;
12968;SDS011;6549;53.128;8.182;2023-07-16T05:08:45;7.03;;;3.50;;
12968;SDS011;6549;53.128;8.182;2023-07-16T05:11:45;10.80;;;4.15;;
12968;SDS011;6549;53.128;8.182;2023-07-16T05:14:46;9.25;;;4.15;;
12968;SDS011;6549;53.128;8.182;2023-07-16T05:17:47;7.60;;;3.88;;
12968;SDS011;6549;53.128;8.182;2023-07-16T05:20:48;8.50;;;3.65;;
12968;SDS011;6549;53.128;8.182;2023-07-16T05:23:49;8.80;;;3.70;;
12968;SDS011;6549;53.128;8.182;2023-07-16T05:26:49;10.07;;;3.92;;
12968;SDS011;6549;53.128;8.182;2023-07-16T05:29:50;11.45;;;3.90;;
12968;SDS011;6549;53.128;8.182;2023-07-16T05:32:51;9.73;;;4.32;;
12968;SDS011;6549;53.128;8.182;2023-07-16T05:35:51;8.80;;;4.07;;
12968;SDS011;6549;53.128;8.182;2023-07-16T05:38:51;10.82;;;4.07;;
12968;SDS011;6549;53.128;8.182;2023-07-16T05:41:52;11.65;;;4.10;;
12968;SDS011;6549;53.128;8.182;2023-07-16T05:44:52;10.80;;;4.13;;
12968;SDS011;6549;53.128;8.182;2023-07-16T05:47:52;8.13;;;4.03;;
12968;SDS011;6549;53.128;8.182;2023-07-16T05:50:53;7.53;;;4.03;;
12968;SDS011;6549;53.128;8.182;2023-07-16T05:53:53;6.82;;;3.58;;
12968;SDS011;6549;53.128;8.182;2023-07-16T05:56:53;11.15;;;3.67;;
12968;SDS011;6549;53.128;8.182;2023-07-16T05:59:54;8.38;;;3.70;;
12968;SDS011;6549;53.128;8.182;2023-07-16T06:02:54;7.97;;;3.30;;
12968;SDS011;6549;53.128;8.182;2023-07-16T06:05:54;10.00;;;3.50;;
12968;SDS011;6549;53.128;8.182;2023-07-16T06:08:55;8.27;;;3.55;;
12968;SDS011;6549;53.128;8.182;2023-07-16T06:11:55;9.80;;;3.20;;
12968;SDS011;6549;53.128;8.182;2023-07-16T06:14:55;11.73;;;4.03;;
12968;SDS011;6549;53.128;8.182;2023-07-16T06:17:55;9.75;;;3.53;;
12968;SDS011;6549;53.128;8.182;2023-07-16T06:20:56;7.82;;;3.13;;
12968;SDS011;6549;53.128;8.182;2023-07-16T06:23:56;12.73;;;3.40;;
12968;SDS011;6549;53.128;8.182;2023-07-16T06:26:56;8.95;;;2.90;;
12968;SDS011;6549;53.128;8.182;2023-07-16T06:29:57;8.27;;;2.83;;
12968;SDS011;6549;53.128;8.182;2023-07-16T06:32:57;7.15;;;2.88;;
12968;SDS011;6549;53.128;8.182;2023-07-16T06:35:57;7.72;;;3.35;;
12968;SDS011;6549;53.128;8.182;2023-07-16T06:38:58;9.40;;;3.38;;
12968;SDS011;6549;53.128;8.182;2023-07-16T06:42:00;7.47;;;3.03;;
12968;SDS011;6549;53.128;8.182;2023-07-16T06:45:00;8.75;;;3.30;;
12968;SDS011;6549;53.128;8.182;2023-07-16T06:48:01;6.25;;;3.00;;
12968;SDS011;6549;53.128;8.182;2023-07-16T06:51:01;7.03;;;3.10;;
12968;SDS011;6549;53.128;8.182;2023-07-16T06:54:02;7.85;;;2.97;;
12968;SDS011;6549;53.128;8.182;2023-07-16T06:57:02;6.28;;;3.08;;
12968;SDS011;6549;53.128;8.182;2023-07-16T07:00:03;7.47;;;3.25;;
12968;SDS011;6549;53.128;8.182;2023-07-16T07:03:04;5.43;;;3.03;;
12968;SDS011;6549;53.128;8.182;2023-07-16T07:06:04;9.30;;;3.60;;
12968;SDS011;6549;53.128;8.182;2023-07-16T07:09:04;7.82;;;3.38;;
12968;SDS011;6549;53.128;8.182;2023-07-16T07:12:05;9.35;;;3.63;;
12968;SDS011;6549;53.128;8.182;2023-07-16T07:15:08;8.55;;;3.20;;
12968;SDS011;6549;53.128;8.182;2023-07-16T07:18:09;6.00;;;3.00;;
12968;SDS011;6549;53.128;8.182;2023-07-16T07:21:10;6.80;;;3.58;;
12968;SDS011;6549;53.128;8.182;2023-07-16T07:24:10;7.93;;;3.58;;
12968;SDS011;6549;53.128;8.182;2023-07-16T07:27:10;7.35;;;3.90;;
12968;SDS011;6549;53.128;8.182;2023-07-16T07:30:11;6.80;;;3.30;;
12968;SDS011;6549;53.128;8.182;2023-07-16T07:33:11;7.72;;;3.20;;
12968;SDS011;6549;53.128;8.182;2023-07-16T07:36:12;8.27;;;3.60;;
12968;SDS011;6549;53.128;8.182;2023-07-16T07:39:12;10.32;;;3.45;;
12968;SDS011;6549;53.128;8.182;2023-07-16T07:42:16;6.97;;;3.08;;
12968;SDS011;6549;53.128;8.182;2023-07-16T07:45:17;8.30;;;3.55;;
12968;SDS011;6549;53.128;8.182;2023-07-16T07:48:17;8.45;;;3.53;;
12968;SDS011;6549;53.128;8.182;2023-07-16T07:51:17;7.57;;;3.40;;
12968;SDS011;6549;53.128;8.182;2023-07-16T07:54:18;8.70;;;3.53;;
12968;SDS011;6549;53.128;8.182;2023-07-16T07:57:19;9.98;;;3.78;;
12968;SDS011;6549;53.128;8.182;2023-07-16T08:00:20;7.65;;;3.70;;
12968;SDS011;6549;53.128;8.182;2023-07-16T08:03:20;8.55;;;3.40;;
12968;SDS011;6549;53.128;8.182;2023-07-16T08:06:20;8.07;;;3.30;;
12968;SDS011;6549;53.128;8.182;2023-07-16T08:09:21;9.57;;;3.50;;
12968;SDS011;6549;53.128;8.182;2023-07-16T08:12:21;7.78;;;3.90;;
12968;SDS011;6549;53.128;8.182;2023-07-16T08:15:21;7.03;;;3.35;;
12968;SDS011;6549;53.128;8.182;2023-07-16T08:18:22;8.10;;;3.45;;
12968;SDS011;6549;53.128;8.182;2023-07-16T08:21:22;7.10;;;3.20;;
12968;SDS011;6549;53.128;8.182;2023-07-16T08:24:22;10.38;;;3.85;;
12968;SDS011;6549;53.128;8.182;2023-07-16T08:27:24;7.22;;;3.30;;
12968;SDS011;6549;53.128;8.182;2023-07-16T08:30:25;6.53;;;3.45;;
12968;SDS011;6549;53.128;8.182;2023-07-16T08:33:25;7.53;;;3.38;;
12968;SDS011;6549;53.128;8.182;2023-07-16T08:36:25;6.22;;;3.47;;
12968;SDS011;6549;53.128;8.182;2023-07-16T08:39:26;6.93;;;3.55;;
12968;SDS011;6549;53.128;8.182;2023-07-16T08:42:26;7.72;;;3.58;;
12968;SDS011;6549;53.128;8.182;2023-07-16T08:45:27;9.63;;;3.50;;
12968;SDS011;6549;53.128;8.182;2023-07-16T08:48:28;6.97;;;3.67;;
12968;SDS011;6549;53.128;8.182;2023-07-16T08:51:29;6.47;;;3.20;;
12968;SDS011;6549;53.128;8.182;2023-07-16T08:54:30;8.00;;;3.67;;
12968;SDS011;6549;53.128;8.182;2023-07-16T08:57:30;6.90;;;3.50;;
12968;SDS011;6549;53.128;8.182;2023-07-16T09:00:31;6.93;;;4.00;;
12968;SDS011;6549;53.128;8.182;2023-07-16T09:03:32;7.47;;;3.67;;
12968;SDS011;6549;53.128;8.182;2023-07-16T09:06:32;8.43;;;3.97;;
12968;SDS011;6549;53.128;8.182;2023-07-16T09:09:32;7.30;;;3.70;;
12968;SDS011;6549;53.128;8.182;2023-07-16T09:12:33;8.65;;;4.20;;
12968;SDS011;6549;53.128;8.182;2023-07-16T09:15:33;7.60;;;4.60;;
12968;SDS011;6549;53.128;8.182;2023-07-16T09:18:39;5.72;;;3.85;;
12968;SDS011;6549;53.128;8.182;2023-07-16T09:21:40;6.57;;;3.60;;
12968;SDS011;6549;53.128;8.182;2023-07-16T09:24:40;6.68;;;3.90;;
12968;SDS011;6549;53.128;8.182;2023-07-16T09:27:40;6.90;;;3.63;;
12968;SDS011;6549;53.128;8.182;2023-07-16T09:30:41;6.80;;;4.10;;
12968;SDS011;6549;53.128;8.182;2023-07-16T09:33:41;7.80;;;3.92;;
12968;SDS011;6549;53.128;8.182;2023-07-16T09:36:41;8.90;;;3.53;;
12968;SDS011;6549;53.128;8.182;2023-07-16T09:39:42;7.80;;;3.75;;
12968;SDS011;6549;53.128;8.182;2023-07-16T09:42:45;6.22;;;3.10;;
12968;SDS011;6549;53.128;8.182;2023-07-16T09:45:46;6.03;;;3.50;;
12968;SDS011;6549;53.128;8.182;2023-07-16T09:48:47;8.07;;;3.63;;
12968;SDS011;6549;53.128;8.182;2023-07-16T09:51:48;7.60;;;3.30;;
12968;SDS011;6549;53.128;8.182;2023-07-16T09:54:52;6.90;;;2.90;;
12968;SDS011;6549;53.128;8.182;2023-07-16T09:57:56;5.30;;;2.85;;
12968;SDS011;6549;53.128;8.182;2023-07-16T10:00:59;7.55;;;3.33;;
12968;SDS011;6549;53.128;8.182;2023-07-16T10:04:09;5.93;;;2.80;;
12968;SDS011;6549;53.128;8.182;2023-07-16T10:07:20;6.97;;;3.15;;
12968;SDS011;6549;53.128;8.182;2023-07-16T10:10:22;11.25;;;3.33;;
12968;SDS011;6549;53.128;8.182;2023-07-16T10:13:26;7.38;;;3.17;;
12968;SDS011;6549;53.128;8.182;2023-07-16T10:16:27;6.75;;;2.92;;
12968;SDS011;6549;53.128;8.182;2023-07-16T10:19:29;5.30;;;3.10;;
12968;SDS011;6549;53.128;8.182;2023-07-16T10:22:34;6.45;;;3.05;;
12968;SDS011;6549;53.128;8.182;2023-07-16T10:25:35;6.88;;;2.83;;
12968;SDS011;6549;53.128;8.182;2023-07-16T10:28:36;7.63;;;3.33;;
12968;SDS011;6549;53.128;8.182;2023-07-16T10:31:37;7.57;;;3.57;;
12968;SDS011;6549;53.128;8.182;2023-07-16T10:34:39;6.70;;;3.25;;
12968;SDS011;6549;53.128;8.182;2023-07-16T10:37:39;6.97;;;3.30;;
12968;SDS011;6549;53.128;8.182;2023-07-16T10:40:44;7.28;;;3.30;;
12968;SDS011;6549;53.128;8.182;2023-07-16T10:43:45;6.85;;;3.65;;
12968;SDS011;6549;53.128;8.182;2023-07-16T10:46:45;8.02;;;4.50;;
12968;SDS011;6549;53.128;8.182;2023-07-16T10:49:45;7.78;;;4.00;;
12968;SDS011;6549;53.128;8.182;2023-07-16T10:52:46;7.88;;;3.75;;
12968;SDS011;6549;53.128;8.182;2023-07-16T10:55:50;7.60;;;3.47;;
12968;SDS011;6549;53.128;8.182;2023-07-16T10:58:51;7.10;;;3.60;;
12968;SDS011;6549;53.128;8.182;2023-07-16T11:01:51;5.90;;;3.03;;
12968;SDS011;6549;53.128;8.182;2023-07-16T11:04:52;5.95;;;3.00;;
12968;SDS011;6549;53.128;8.182;2023-07-16T11:07:53;6.18;;;3.20;;
12968;SDS011;6549;53.128;8.182;2023-07-16T11:10:54;6.25;;;3.08;;
12968;SDS011;6549;53.128;8.182;2023-07-16T11:13:58;6.38;;;2.80;;
12968;SDS011;6549;53.128;8.182;2023-07-16T11:17:03;6.93;;;3.30;;
12968;SDS011;6549;53.128;8.182;2023-07-16T11:20:06;6.55;;;3.30;;
12968;SDS011;6549;53.128;8.182;2023-07-16T11:23:09;8.23;;;3.05;;
12968;SDS011;6549;53.128;8.182;2023-07-16T11:26:10;8.18;;;3.70;;
12968;SDS011;6549;53.128;8.182;2023-07-16T11:29:14;6.57;;;3.28;;
12968;SDS011;6549;53.128;8.182;2023-07-16T11:32:28;5.93;;;3.20;;
12968;SDS011;6549;53.128;8.182;2023-07-16T11:35:35;6.53;;;3.40;;
12968;SDS011;6549;53.128;8.182;2023-07-16T11:38:37;10.75;;;3.60;;
12968;SDS011;6549;53.128;8.182;2023-07-16T11:41:37;5.03;;;3.00;;
12968;SDS011;6549;53.128;8.182;2023-07-16T11:44:38;6.18;;;3.30;;
12968;SDS011;6549;53.128;8.182;2023-07-16T11:47:38;5.20;;;2.78;;
12968;SDS011;6549;53.128;8.182;2023-07-16T11:50:38;6.43;;;3.28;;
12968;SDS011;6549;53.128;8.182;2023-07-16T11:53:39;6.95;;;3.33;;
12968;SDS011;6549;53.128;8.182;2023-07-16T11:56:39;6.60;;;3.30;;
12968;SDS011;6549;53.128;8.182;2023-07-16T11:59:39;6.97;;;3.17;;
12968;SDS011;6549;53.128;8.182;2023-07-16T12:02:39;6.72;;;3.45;;
12968;SDS011;6549;53.128;8.182;2023-07-16T12:05:40;6.80;;;3.15;;
12968;SDS011;6549;53.128;8.182;2023-07-16T12:08:40;8.55;;;3.47;;
12968;SDS011;6549;53.128;8.182;2023-07-16T12:11:40;6.25;;;3.40;;
12968;SDS011;6549;53.128;8.182;2023-07-16T12:14:41;7.85;;;3.08;;
12968;SDS011;6549;53.128;8.182;2023-07-16T12:17:41;6.93;;;3.00;;
12968;SDS011;6549;53.128;8.182;2023-07-16T12:20:41;5.57;;;2.80;;
12968;SDS011;6549;53.128;8.182;2023-07-16T12:23:42;6.15;;;3.28;;
12968;SDS011;6549;53.128;8.182;2023-07-16T12:26:42;5.80;;;3.22;;
12968;SDS011;6549;53.128;8.182;2023-07-16T12:29:42;6.70;;;3.55;;
12968;SDS011;6549;53.128;8.182;2023-07-16T12:32:43;5.80;;;3.20;;
12968;SDS011;6549;53.128;8.182;2023-07-16T12:35:43;7.47;;;3.55;;
12968;SDS011;6549;53.128;8.182;2023-07-16T12:38:44;8.30;;;3.35;;
12968;SDS011;6549;53.128;8.182;2023-07-16T12:41:44;9.60;;;3.38;;
12968;SDS011;6549;53.128;8.182;2023-07-16T12:44:44;6.10;;;3.30;;
12968;SDS011;6549;53.128;8.182;2023-07-16T12:47:46;8.80;;;3.88;;
12968;SDS011;6549;53.128;8.182;2023-07-16T12:50:46;7.07;;;3.60;;
12968;SDS011;6549;53.128;8.182;2023-07-16T12:53:46;9.60;;;3.92;;
12968;SDS011;6549;53.128;8.182;2023-07-16T12:56:47;9.02;;;4.00;;
12968;SDS011;6549;53.128;8.182;2023-07-16T12:59:47;6.43;;;3.83;;
12968;SDS011;6549;53.128;8.182;2023-07-16T13:02:47;7.97;;;3.75;;
12968;SDS011;6549;53.128;8.182;2023-07-16T13:05:48;5.90;;;3.97;;
12968;SDS011;6549;53.128;8.182;2023-07-16T13:08:48;5.93;;;3.55;;
12968;SDS011;6549;53.128;8.182;2023-07-16T13:11:48;7.20;;;3.90;;
12968;SDS011;6549;53.128;8.182;2023-07-16T13:14:49;6.88;;;3.97;;
12968;SDS011;6549;53.128;8.182;2023-07-16T13:17:49;8.13;;;3.60;;
12968;SDS011;6549;53.128;8.182;2023-07-16T13:20:49;6.72;;;4.13;;
12968;SDS011;6549;53.128;8.182;2023-07-16T13:23:50;8.65;;;4.00;;
12968;SDS011;6549;53.128;8.182;2023-07-16T13:26:50;6.65;;;3.70;;
12968;SDS011;6549;53.128;8.182;2023-07-16T13:29:50;7.40;;;4.10;;
12968;SDS011;6549;53.128;8.182;2023-07-16T13:32:51;6.63;;;3.72;;
12968;SDS011;6549;53.128;8.182;2023-07-16T13:35:53;7.47;;;3.67;;
12968;SDS011;6549;53.128;8.182;2023-07-16T13:38:53;8.38;;;4.07;;
12968;SDS011;6549;53.128;8.182;2023-07-16T13:41:54;6.75;;;3.90;;
12968;SDS011;6549;53.128;8.182;2023-07-16T13:44:54;8.95;;;4.05;;
12968;SDS011;6549;53.128;8.182;2023-07-16T13:47:54;8.93;;;4.18;;
12968;SDS011;6549;53.128;8.182;2023-07-16T13:50:55;7.18;;;3.85;;
12968;SDS011;6549;53.128;8.182;2023-07-16T13:53:55;7.20;;;4.22;;
12968;SDS011;6549;53.128;8.182;2023-07-16T13:56:56;8.85;;;4.00;;
12968;SDS011;6549;53.128;8.182;2023-07-16T13:59:56;6.40;;;3.55;;
12968;SDS011;6549;53.128;8.182;2023-07-16T14:02:56;6.40;;;3.42;;
12968;SDS011;6549;53.128;8.182;2023-07-16T14:05:57;7.25;;;3.50;;
12968;SDS011;6549;53.128;8.182;2023-07-16T14:08:57;4.93;;;3.30;;
12968;SDS011;6549;53.128;8.182;2023-07-16T14:11:58;6.53;;;3.38;;
12968;SDS011;6549;53.128;8.182;2023-07-16T14:14:58;7.47;;;3.80;;
12968;SDS011;6549;53.128;8.182;2023-07-16T14:17:58;7.70;;;4.03;;
12968;SDS011;6549;53.128;8.182;2023-07-16T14:20:59;5.95;;;3.30;;
12968;SDS011;6549;53.128;8.182;2023-07-16T14:24:00;6.18;;;3.35;;
12968;SDS011;6549;53.128;8.182;2023-07-16T14:27:00;8.18;;;3.55;;
12968;SDS011;6549;53.128;8.182;2023-07-16T14:30:01;7.30;;;3.60;;
12968;SDS011;6549;53.128;8.182;2023-07-16T14:33:02;7.05;;;3.58;;
12968;SDS011;6549;53.128;8.182;2023-07-16T14:36:03;5.30;;;3.83;;
12968;SDS011;6549;53.128;8.182;2023-07-16T14:39:04;9.20;;;3.78;;
12968;SDS011;6549;53.128;8.182;2023-07-16T14:42:04;8.15;;;3.97;;
12968;SDS011;6549;53.128;8.182;2023-07-16T14:45:05;6.30;;;3.75;;
12968;SDS011;6549;53.128;8.182;2023-07-16T14:48:07;7.70;;;3.90;;
12968;SDS011;6549;53.128;8.182;2023-07-16T14:51:10;7.45;;;3.92;;
12968;SDS011;6549;53.128;8.182;2023-07-16T14:54:11;7.53;;;4.22;;
12968;SDS011;6549;53.128;8.182;2023-07-16T14:57:11;6.72;;;4.10;;
12968;SDS011;6549;53.128;8.182;2023-07-16T15:00:12;7.35;;;4.18;;
12968;SDS011;6549;53.128;8.182;2023-07-16T15:03:13;9.20;;;3.78;;
12968;SDS011;6549;53.128;8.182;2023-07-16T15:06:14;7.15;;;3.90;;
12968;SDS011;6549;53.128;8.182;2023-07-16T15:09:14;6.20;;;3.72;;
12968;SDS011;6549;53.128;8.182;2023-07-16T15:12:15;7.35;;;3.50;;
12968;SDS011;6549;53.128;8.182;2023-07-16T15:15:15;7.45;;;3.80;;
12968;SDS011;6549;53.128;8.182;2023-07-16T15:18:15;6.10;;;3.72;;
12968;SDS011;6549;53.128;8.182;2023-07-16T15:21:16;8.65;;;3.72;;
12968;SDS011;6549;53.128;8.182;2023-07-16T15:24:16;7.10;;;3.67;;
12968;SDS011;6549;53.128;8.182;2023-07-16T15:27:16;6.60;;;3.67;;
12968;SDS011;6549;53.128;8.182;2023-07-16T15:30:17;5.80;;;3.78;;
12968;SDS011;6549;53.128;8.182;2023-07-16T15:33:17;6.90;;;4.10;;
12968;SDS011;6549;53.128;8.182;2023-07-16T15:36:17;6.50;;;3.65;;
12968;SDS011;6549;53.128;8.182;2023-07-16T15:39:18;7.15;;;4.00;;
12968;SDS011;6549;53.128;8.182;2023-07-16T15:42:18;6.60;;;3.88;;
12968;SDS011;6549;53.128;8.182;2023-07-16T15:45:20;8.00;;;4.10;;
12968;SDS011;6549;53.128;8.182;2023-07-16T15:48:20;6.80;;;3.83;;
12968;SDS011;6549;53.128;8.182;2023-07-16T15:51:20;8.73;;;4.45;;
12968;SDS011;6549;53.128;8.182;2023-07-16T15:54:21;5.57;;;3.25;;
12968;SDS011;6549;53.128;8.182;2023-07-16T15:57:21;8.50;;;3.85;;
12968;SDS011;6549;53.128;8.182;2023-07-16T16:00:22;6.28;;;3.17;;
12968;SDS011;6549;53.128;8.182;2023-07-16T16:03:23;6.20;;;3.30;;
12968;SDS011;6549;53.128;8.182;2023-07-16T16:06:23;6.82;;;3.30;;
12968;SDS011;6549;53.128;8.182;2023-07-16T16:09:24;6.50;;;3.20;;
12968;SDS011;6549;53.128;8.182;2023-07-16T16:12:24;7.80;;;3.70;;
12968;SDS011;6549;53.128;8.182;2023-07-16T16:15:25;5.50;;;3.40;;
12968;SDS011;6549;53.128;8.182;2023-07-16T16:18:25;5.40;;;3.22;;
12968;SDS011;6549;53.128;8.182;2023-07-16T16:21:25;5.78;;;3.20;;
12968;SDS011;6549;53.128;8.182;2023-07-16T16:24:26;5.63;;;3.53;;
12968;SDS011;6549;53.128;8.182;2023-07-16T16:27:26;7.88;;;3.20;;
12968;SDS011;6549;53.128;8.182;2023-07-16T16:30:27;6.15;;;3.55;;
12968;SDS011;6549;53.128;8.182;2023-07-16T16:33:29;5.90;;;3.27;;
12968;SDS011;6549;53.128;8.182;2023-07-16T16:36:29;7.78;;;3.42;;
12968;SDS011;6549;53.128;8.182;2023-07-16T16:39:29;6.93;;;3.00;;
12968;SDS011;6549;53.128;8.182;2023-07-16T16:42:30;7.80;;;3.25;;
12968;SDS011;6549;53.128;8.182;2023-07-16T16:45:30;7.07;;;3.10;;
12968;SDS011;6549;53.128;8.182;2023-07-16T16:48:30;6.47;;;3.28;;
12968;SDS011;6549;53.128;8.182;2023-07-16T16:51:33;5.55;;;3.20;;
12968;SDS011;6549;53.128;8.182;2023-07-16T16:54:34;6.15;;;3.63;;
12968;SDS011;6549;53.128;8.182;2023-07-16T17:00:36;6.67;;;3.70;;
12968;SDS011;6549;53.128;8.182;2023-07-16T17:03:37;8.90;;;3.22;;
12968;SDS011;6549;53.128;8.182;2023-07-16T17:06:37;5.28;;;3.00;;
12968;SDS011;6549;53.128;8.182;2023-07-16T17:09:38;4.90;;;3.20;;
12968;SDS011;6549;53.128;8.182;2023-07-16T17:12:38;5.72;;;2.90;;
12968;SDS011;6549;53.128;8.182;2023-07-16T17:15:43;6.38;;;3.10;;
12968;SDS011;6549;53.128;8.182;2023-07-16T17:18:47;8.75;;;2.92;;
12968;SDS011;6549;53.128;8.182;2023-07-16T17:21:47;7.38;;;3.30;;
12968;SDS011;6549;53.128;8.182;2023-07-16T17:24:48;5.50;;;2.80;;
12968;SDS011;6549;53.128;8.182;2023-07-16T17:27:48;5.90;;;3.17;;
12968;SDS011;6549;53.128;8.182;2023-07-16T17:30:48;5.47;;;3.13;;
12968;SDS011;6549;53.128;8.182;2023-07-16T17:33:49;6.80;;;3.35;;
12968;SDS011;6549;53.128;8.182;2023-07-16T17:36:49;4.45;;;2.97;;
12968;SDS011;6549;53.128;8.182;2023-07-16T17:39:49;6.47;;;3.17;;
12968;SDS011;6549;53.128;8.182;2023-07-16T17:42:53;5.88;;;3.08;;
12968;SDS011;6549;53.128;8.182;2023-07-16T17:45:56;4.97;;;3.10;;
12968;SDS011;6549;53.128;8.182;2023-07-16T17:48:57;5.18;;;3.22;;
12968;SDS011;6549;53.128;8.182;2023-07-16T17:51:58;5.63;;;3.08;;
12968;SDS011;6549;53.128;8.182;2023-07-16T17:54:59;8.05;;;3.22;;
12968;SDS011;6549;53.128;8.182;2023-07-16T17:57:59;6.68;;;3.13;;
12968;SDS011;6549;53.128;8.182;2023-07-16T18:01:00;5.50;;;3.40;;
12968;SDS011;6549;53.128;8.182;2023-07-16T18:04:01;7.28;;;3.00;;
12968;SDS011;6549;53.128;8.182;2023-07-16T18:07:01;5.75;;;3.20;;
12968;SDS011;6549;53.128;8.182;2023-07-16T18:10:03;6.95;;;3.28;;
12968;SDS011;6549;53.128;8.182;2023-07-16T18:13:03;7.40;;;3.35;;
12968;SDS011;6549;53.128;8.182;2023-07-16T18:16:04;4.72;;;2.83;;
12968;SDS011;6549;53.128;8.182;2023-07-16T18:19:04;6.32;;;3.28;;
12968;SDS011;6549;53.128;8.182;2023-07-16T18:22:05;4.43;;;2.95;;
12968;SDS011;6549;53.128;8.182;2023-07-16T18:25:06;5.07;;;3.13;;
12968;SDS011;6549;53.128;8.182;2023-07-16T18:28:07;4.68;;;2.88;;
12968;SDS011;6549;53.128;8.182;2023-07-16T18:31:07;5.80;;;2.90;;